Date,TemperatureHighF,TemperatureAvgF,TemperatureLowF,DewpointHighF,DewpointAvgF,DewpointLowF,HumidityHigh,HumidityAvg,HumidityLow,PressureMaxIn,PressureMinIn,WindSpeedMaxMPH,WindSpeedAvgMPH,GustSpeedMaxMPH,PrecipitationSumIn
2014-3-1,60.3,44.2,34.7,38.0,30.9,24.0,95,61,40,30.32,29.56,10,2,10,0.00
2014-3-2,71.8,53.4,30.5,49.0,41.2,29.0,96,68,41,30.20,29.94,19,3,20,0.00
2014-3-3,60.0,47.4,29.2,58.0,43.2,26.0,98,86,66,30.16,29.81,26,7,26,0.31
2014-3-4,37.9,30.7,20.6,26.0,17.6,8.0,90,58,43,30.26,30.13,22,5,22,0.00
2014-3-5,52.2,38.5,29.9,33.0,28.2,23.0,95,69,34,30.17,30.08,9,2,9,0.05
2014-3-6,40.4,35.7,29.1,35.0,27.0,18.0,95,72,46,30.26,29.90,21,8,27,1.12
2014-3-7,43.1,38.2,35.1,42.0,37.2,33.0,96,95,95,29.95,29.83,27,9,29,1.48
2014-3-8,68.8,60.5,46.3,50.0,44.9,40.0,96,58,37,30.10,29.99,20,4,20,0.00
2014-3-9,72.4,54.9,36.1,46.0,41.0,35.0,96,65,30,30.10,29.97,13,1,14,0.00
2014-3-10,72.9,54.9,33.9,47.0,39.6,32.0,96,63,29,30.01,29.85,17,2,18,0.00
2014-3-11,76.5,63.7,39.6,50.0,43.8,37.0,96,53,26,29.85,29.71,15,2,16,0.00
2014-3-12,73.9,62.3,48.0,61.0,52.5,28.0,98,73,42,29.71,29.37,24,7,38,0.09
2014-3-13,52.7,43.2,31.9,29.0,18.1,8.0,75,38,15,30.18,29.24,31,6,31,0.00
2014-3-14,63.9,45.1,23.3,31.0,24.1,14.0,94,52,20,30.31,30.10,22,3,22,0.00
2014-3-15,71.9,59.3,49.6,44.0,37.6,32.0,78,47,27,30.11,30.01,17,3,19,0.00
2014-3-16,54.2,51.6,47.7,53.0,49.3,42.0,97,92,77,30.01,29.72,17,2,17,0.85
2014-3-17,50.2,37.0,33.3,49.0,35.9,32.0,97,95,95,29.89,29.72,20,6,22,0.99
2014-3-25,47.9,42.8,35.9,42.0,34.3,23.0,96,74,39,30.00,29.23,31,6,33,0.03
2014-3-26,51.9,41.4,29.8,26.0,17.5,14.0,69,40,22,30.25,30.00,19,6,19,0.00
2014-3-27,63.8,55.0,25.9,46.0,30.3,21.0,94,42,24,30.42,30.24,17,4,17,0.00
2014-3-28,66.1,59.7,49.9,61.0,55.3,44.0,98,87,74,30.25,30.09,17,4,18,0.07
2014-3-29,70.5,62.8,57.9,65.0,59.3,50.0,98,90,70,30.11,29.35,21,4,21,0.27
2014-3-30,61.2,52.9,40.9,50.0,33.7,24.0,78,50,25,29.99,29.69,41,9,41,0.06
2014-3-31,77.7,53.8,32.7,42.0,30.7,23.0,95,54,14,30.17,29.99,11,1,11,0.00